Time;durP1;ratioP1;P1;durP2;ratioP2;P2;SDS_P1;SDS_P2;PMS_P1;PMS_P2;Temp;Humidity;BMP_temperature;BMP_pressure;BME280_temperature;BME280_humidity;BME280_pressure;Samples;Min_cycle;Max_cycle;Signal;HPM_P1;HPM_P2
2022/04/06 00:01:45;;;;;;;29.13;11.15;;;11.20;99.90;;;9.08;100.00;99428.50;4971417;28;20039;-89
2022/04/06 00:04:16;;;;;;;25.23;10.20;;;11.10;99.90;;;9.07;100.00;99432.22;4972142;28;20092;-90
2022/04/06 00:06:44;;;;;;;23.13;11.02;;;11.20;99.90;;;9.07;100.00;99425.97;4972331;28;20052;-89
2022/04/06 00:09:11;;;;;;;29.08;11.30;;;11.10;99.90;;;9.05;100.00;99414.47;4971027;28;20051;-90
2022/04/06 00:11:39;;;;;;;30.10;11.27;;;11.10;99.90;;;9.08;100.00;99419.47;4969917;28;20074;-89
2022/04/06 00:14:07;;;;;;;26.65;10.73;;;11.10;99.90;;;9.03;100.00;99411.13;4979264;28;20042;-89
2022/04/06 00:16:36;;;;;;;27.98;10.65;;;11.10;99.90;;;8.99;100.00;99414.25;4984738;28;20046;-90
2022/04/06 00:19:04;;;;;;;25.52;10.30;;;11.20;99.90;;;8.96;100.00;99406.50;4985002;28;20049;-89
2022/04/06 00:21:31;;;;;;;29.25;11.98;;;11.10;99.90;;;8.97;100.00;99401.91;4989501;28;20046;-91
2022/04/06 00:23:59;;;;;;;28.35;10.70;;;11.10;99.90;;;8.95;100.00;99401.28;4986721;28;20043;-90
2022/04/06 00:26:29;;;;;;;27.95;10.55;;;11.10;99.90;;;8.97;100.00;99405.47;4970604;28;20051;-88
2022/04/06 00:28:56;;;;;;;30.35;10.57;;;11.10;99.90;;;8.97;100.00;99400.03;4975000;28;20129;-90
2022/04/06 00:31:23;;;;;;;30.55;11.57;;;11.10;99.90;;;8.96;100.00;99398.34;4986861;28;20081;-90
2022/04/06 00:33:52;;;;;;;24.08;10.18;;;11.10;99.90;;;8.92;100.00;99397.06;4971997;28;20039;-90
2022/04/06 00:36:20;;;;;;;26.13;11.43;;;11.10;99.90;;;8.94;100.00;99395.00;4970310;28;20046;-90
2022/04/06 00:38:47;;;;;;;25.60;9.77;;;11.10;99.90;;;8.94;100.00;99402.31;4973776;28;20042;-90
2022/04/06 00:41:15;;;;;;;24.52;10.32;;;11.10;99.90;;;8.94;100.00;99392.28;5004916;28;20533;-89
2022/04/06 00:43:42;;;;;;;24.52;10.15;;;11.10;99.90;;;8.96;100.00;99390.22;4988141;28;20038;-90
2022/04/06 00:46:10;;;;;;;25.33;10.30;;;11.00;99.90;;;8.98;100.00;99398.16;4969904;28;20050;-89
2022/04/06 00:48:37;;;;;;;25.15;10.50;;;11.10;99.90;;;8.95;100.00;99391.25;4971814;28;20085;-90
2022/04/06 00:51:06;;;;;;;22.40;9.68;;;11.10;99.90;;;8.93;100.00;99390.63;4987112;28;20057;-90
2022/04/06 00:53:33;;;;;;;28.85;10.95;;;11.10;99.90;;;8.91;100.00;99381.00;4986005;28;20090;-90
2022/04/06 00:56:01;;;;;;;19.40;9.45;;;11.00;99.90;;;8.90;100.00;99388.31;4972814;28;20054;-90
2022/04/06 00:58:28;;;;;;;26.60;11.25;;;11.10;99.90;;;8.90;100.00;99385.59;4984500;28;20380;-91
2022/04/06 01:00:55;;;;;;;23.02;10.70;;;11.10;99.90;;;8.90;100.00;99384.75;4970378;28;20455;-89
2022/04/06 01:03:24;;;;;;;28.15;9.68;;;11.00;99.90;;;8.92;100.00;99386.22;4970099;28;20089;-91
2022/04/06 01:05:51;;;;;;;32.72;10.82;;;11.00;99.90;;;8.93;100.00;99390.63;5005810;28;20053;-90
2022/04/06 01:08:20;;;;;;;22.77;10.10;;;11.00;99.90;;;8.87;100.00;99379.72;4989278;28;20046;-90
2022/04/06 01:10:47;;;;;;;25.13;10.20;;;11.00;99.90;;;8.84;100.00;99367.41;4968894;28;20049;-90
2022/04/06 01:13:15;;;;;;;20.67;9.68;;;11.00;99.90;;;8.87;100.00;99380.59;4971068;28;20113;-90
2022/04/06 01:15:42;;;;;;;25.63;9.75;;;11.00;99.90;;;8.86;100.00;99370.75;4989118;28;20042;-90
2022/04/06 01:18:10;;;;;;;22.67;9.52;;;11.00;99.90;;;8.90;100.00;99363.06;4989658;28;20775;-90
2022/04/06 01:20:37;;;;;;;26.92;10.00;;;11.00;99.90;;;8.89;100.00;99367.66;4989893;28;20101;-91
2022/04/06 01:23:06;;;;;;;27.73;10.35;;;11.00;99.90;;;8.89;100.00;99373.09;4988442;28;20042;-89
2022/04/06 01:25:38;;;;;;;24.42;9.75;;;11.00;99.90;;;8.92;100.00;99375.38;4969581;28;20419;-90
2022/04/06 01:28:05;;;;;;;21.50;9.82;;;10.90;99.90;;;8.83;100.00;99363.00;4970977;28;20971;-89
2022/04/06 01:30:33;;;;;;;22.60;9.73;;;11.00;99.90;;;8.85;100.00;99376.38;4993102;23;20578;-75
2022/04/06 01:33:04;;;;;;;24.23;9.25;;;11.00;99.90;;;8.82;100.00;99376.81;4989293;28;20039;-75
2022/04/06 01:35:32;;;;;;;23.83;9.25;;;11.00;99.90;;;8.77;100.00;99364.66;4998334;28;20056;-77
2022/04/06 01:37:59;;;;;;;23.80;9.10;;;10.90;99.90;;;8.80;100.00;99366.97;5002793;28;20042;-75
2022/04/06 01:40:28;;;;;;;21.08;9.75;;;10.90;99.90;;;8.80;100.00;99366.97;4988959;28;20072;-74
2022/04/06 01:42:56;;;;;;;23.48;9.02;;;10.90;99.90;;;8.80;100.00;99368.88;4989920;28;20044;-77
2022/04/06 01:45:23;;;;;;;16.88;8.30;;;10.90;99.90;;;8.82;100.00;99372.22;4989754;28;20046;-75
2022/04/06 01:47:51;;;;;;;22.83;8.90;;;10.90;99.90;;;8.81;100.00;99362.38;5008093;28;20506;-75
2022/04/06 01:53:04;;;;;;;26.65;9.13;;;10.90;99.90;;;8.84;100.00;99362.00;4988206;28;20506;-75
2022/04/06 01:55:32;;;;;;;25.92;9.70;;;10.90;99.90;;;8.82;100.00;99361.34;5006967;28;20050;-75
2022/04/06 01:58:00;;;;;;;21.95;9.43;;;10.90;99.90;;;8.80;100.00;99355.31;4993659;28;20050;-75
2022/04/06 02:00:27;;;;;;;25.65;8.70;;;10.90;99.90;;;8.79;100.00;99356.31;4992580;28;20478;-74
2022/04/06 02:02:55;;;;;;;17.50;7.82;;;10.90;99.90;;;8.80;100.00;99355.31;5011108;28;20402;-75
2022/04/06 02:05:24;;;;;;;21.05;8.77;;;10.90;99.90;;;8.77;100.00;99351.09;5012749;28;20128;-75
2022/04/06 02:07:51;;;;;;;23.08;8.38;;;10.90;99.90;;;8.73;100.00;99351.72;4996914;28;20038;-75
2022/04/06 02:10:19;;;;;;;21.80;8.52;;;10.80;99.90;;;8.78;100.00;99349.25;4992270;28;20074;-75
2022/04/06 02:12:48;;;;;;;18.80;8.18;;;10.90;99.90;;;8.73;100.00;99340.84;4994270;28;20042;-75
2022/04/06 02:15:16;;;;;;;20.67;8.00;;;10.90;99.90;;;8.71;100.00;99338.34;4993221;28;20356;-74
2022/04/06 02:17:45;;;;;;;21.58;7.68;;;10.90;99.90;;;8.65;100.00;99338.31;4996995;28;20046;-76
2022/04/06 02:20:13;;;;;;;19.92;7.95;;;10.80;99.90;;;8.70;100.00;99343.97;5030722;28;20049;-74
2022/04/06 02:22:40;;;;;;;18.80;7.93;;;10.80;99.90;;;8.70;100.00;99333.13;5017146;28;20052;-74
2022/04/06 02:25:08;;;;;;;23.80;8.77;;;10.80;99.90;;;8.69;100.00;99342.31;5012347;28;20046;-75
2022/04/06 02:27:47;;;;;;;20.50;7.80;;;10.80;99.90;;;8.66;100.00;99323.72;4999446;28;20149;-77
2022/04/06 02:30:15;;;;;;;20.45;8.07;;;10.80;99.90;;;8.68;100.00;99333.34;5011349;28;20045;-77
2022/04/06 02:32:42;;;;;;;20.63;7.35;;;10.80;99.90;;;8.68;100.00;99329.78;4998853;28;20041;-77
2022/04/06 02:35:10;;;;;;;19.92;7.05;;;10.80;99.90;;;8.71;100.00;99337.50;4992773;28;20038;-77
2022/04/06 02:37:39;;;;;;;16.13;7.13;;;10.80;99.90;;;8.71;100.00;99327.50;4998318;28;20049;-77
2022/04/06 02:40:08;;;;;;;20.52;7.38;;;10.80;99.90;;;8.69;100.00;99334.16;5011150;28;20077;-77
2022/04/06 02:42:35;;;;;;;18.50;7.55;;;10.80;99.90;;;8.65;100.00;99332.91;5010462;28;20042;-77
2022/04/06 02:45:04;;;;;;;20.10;6.97;;;10.80;99.90;;;8.61;100.00;99337.88;5012121;28;20044;-77
2022/04/06 02:47:31;;;;;;;18.30;6.78;;;10.80;99.90;;;8.63;100.00;99326.84;5004822;28;20084;-74
2022/04/06 02:49:59;;;;;;;14.50;6.28;;;10.80;99.90;;;8.66;100.00;99329.13;5011318;28;20561;-74
2022/04/06 02:52:26;;;;;;;20.48;6.93;;;10.80;99.90;;;8.67;100.00;99326.22;5002982;28;20056;-75
2022/04/06 02:54:53;;;;;;;16.38;6.75;;;10.80;99.90;;;8.70;100.00;99319.56;4992532;28;20468;-75
2022/04/06 02:57:20;;;;;;;16.60;6.60;;;10.80;99.90;;;8.67;100.00;99317.25;4999084;28;20101;-75
2022/04/06 02:59:47;;;;;;;23.17;7.03;;;10.80;99.90;;;8.67;100.00;99322.69;5009411;28;20045;-75
2022/04/06 03:02:16;;;;;;;18.70;6.57;;;10.70;99.90;;;8.65;100.00;99322.06;4993917;28;20126;-75
2022/04/06 03:04:43;;;;;;;20.85;6.80;;;10.70;99.90;;;8.65;100.00;99317.47;4990586;28;20419;-75
2022/04/06 03:07:10;;;;;;;16.85;6.15;;;10.80;99.90;;;8.64;100.00;99309.53;4996747;28;20042;-74
2022/04/06 03:09:37;;;;;;;17.98;6.57;;;10.80;99.90;;;8.62;100.00;99312.44;4991301;28;20116;-74
2022/04/06 03:12:06;;;;;;;19.00;5.90;;;10.70;99.90;;;8.60;100.00;99315.38;4995101;28;20048;-75
2022/04/06 03:14:34;;;;;;;14.68;6.07;;;10.80;99.90;;;8.59;100.00;99308.25;5011617;28;20034;-75
2022/04/06 03:17:01;;;;;;;19.52;6.30;;;10.80;99.90;;;8.58;100.00;99309.28;5000091;28;20097;-75
2022/04/06 03:19:29;;;;;;;14.68;5.60;;;10.80;99.90;;;8.59;100.00;99310.13;5022681;28;20115;-75
2022/04/06 03:21:57;;;;;;;14.05;6.28;;;10.80;99.90;;;8.60;100.00;99309.94;5014828;28;20042;-75
2022/04/06 03:24:27;;;;;;;19.10;5.85;;;10.70;99.90;;;8.58;100.00;99314.69;4991900;28;20039;-74
2022/04/06 03:26:54;;;;;;;14.25;6.30;;;10.70;99.90;;;8.55;100.00;99312.41;5000889;28;20133;-75
2022/04/06 03:29:21;;;;;;;15.38;6.20;;;10.70;99.90;;;8.58;100.00;99322.84;4998848;28;20050;-75
2022/04/06 03:31:48;;;;;;;17.25;6.40;;;10.70;99.90;;;8.53;100.00;99319.91;5010265;28;20041;-74
2022/04/06 03:34:15;;;;;;;17.40;5.90;;;10.70;99.90;;;8.59;100.00;99310.13;5009651;28;20085;-74
2022/04/06 03:36:44;;;;;;;19.23;6.50;;;10.70;99.90;;;8.57;100.00;99310.34;4999940;28;20049;-75
2022/04/06 03:39:11;;;;;;;14.80;6.07;;;10.70;99.90;;;8.58;100.00;99303.84;5010151;28;20084;-75
2022/04/06 03:41:39;;;;;;;16.83;6.78;;;10.80;99.90;;;8.58;100.00;99306.56;5010175;28;20053;-74
2022/04/06 03:44:09;;;;;;;14.95;6.13;;;10.70;99.90;;;8.56;100.00;99311.34;5010601;28;20113;-75
2022/04/06 03:46:36;;;;;;;15.05;6.45;;;10.70;99.90;;;8.56;100.00;99305.94;4991502;28;20843;-76
2022/04/06 03:49:04;;;;;;;19.02;6.25;;;10.70;99.90;;;8.57;100.00;99298.66;5004469;28;20090;-75
2022/04/06 03:51:31;;;;;;;14.93;6.35;;;10.70;99.90;;;8.58;100.00;99300.31;4998058;28;20038;-77
2022/04/06 03:54:00;;;;;;;16.30;7.10;;;10.70;99.90;;;8.57;100.00;99302.19;5010750;28;20046;-76
2022/04/06 03:56:27;;;;;;;18.98;6.90;;;10.70;99.90;;;8.58;100.00;99305.72;5004109;28;20073;-76
2022/04/06 03:58:54;;;;;;;17.48;6.70;;;10.70;99.90;;;8.52;100.00;99293.81;5002402;28;20046;-76
2022/04/06 04:01:22;;;;;;;16.52;7.25;;;10.70;99.90;;;8.53;100.00;99298.22;4991490;28;20145;-76
2022/04/06 04:03:53;;;;;;;19.35;7.03;;;10.70;99.90;;;8.52;100.00;99307.38;4991078;28;20396;-76
2022/04/06 04:06:20;;;;;;;19.45;7.28;;;10.70;99.90;;;8.54;100.00;99302.59;5010612;28;20046;-76
2022/04/06 04:08:47;;;;;;;16.17;6.95;;;10.70;99.90;;;8.52;100.00;99295.72;4999464;28;20054;-76
2022/04/06 04:11:15;;;;;;;25.52;7.43;;;10.70;99.90;;;8.54;100.00;99296.34;5007861;28;20060;-77
2022/04/06 04:13:43;;;;;;;16.88;7.35;;;10.70;99.90;;;8.56;100.00;99295.09;5010549;28;20050;-76
2022/04/06 04:16:10;;;;;;;20.48;7.55;;;10.70;99.90;;;8.52;100.00;99293.00;4993124;28;20078;-76
2022/04/06 04:18:37;;;;;;;19.73;6.68;;;10.60;99.90;;;8.53;100.00;99292.78;5005842;28;20041;-76
2022/04/06 04:23:51;;;;;;;23.70;6.90;;;10.70;99.90;;;8.52;100.00;99291.09;5008659;28;22000;-76
2022/04/06 04:26:21;;;;;;;15.68;7.00;;;10.60;99.90;;;8.53;100.00;99281.09;5009961;28;20041;-76
2022/04/06 04:28:48;;;;;;;14.57;6.75;;;10.60;99.90;;;8.50;100.00;99287.75;5005294;28;20406;-76
2022/04/06 04:31:15;;;;;;;15.27;6.90;;;10.60;99.90;;;8.50;100.00;99287.75;5009021;28;20054;-76
2022/04/06 04:33:42;;;;;;;15.85;6.90;;;10.60;99.90;;;8.50;100.00;99276.91;5007609;28;20077;-77
2022/04/06 04:36:09;;;;;;;14.95;6.82;;;10.60;99.90;;;8.43;100.00;99289.59;5010330;28;20050;-76
2022/04/06 04:38:37;;;;;;;16.52;6.35;;;10.60;99.90;;;8.44;100.00;99277.72;4997094;28;20044;-76
2022/04/06 04:41:06;;;;;;;19.27;6.85;;;10.60;99.90;;;8.38;100.00;99273.09;4998924;28;20056;-77
2022/04/06 04:43:35;;;;;;;19.73;6.47;;;10.50;99.90;;;8.29;100.00;99277.00;5009090;28;20057;-76
2022/04/06 04:46:04;;;;;;;14.63;5.95;;;10.50;99.90;;;8.26;100.00;99277.38;4990833;28;20049;-77
2022/04/06 04:48:31;;;;;;;13.75;6.28;;;10.50;99.90;;;8.26;100.00;99280.09;5001915;28;20454;-77
2022/04/06 04:50:59;;;;;;;21.65;6.80;;;10.50;99.90;;;8.18;100.00;99281.09;5008628;28;20060;-76
2022/04/06 04:53:26;;;;;;;15.90;6.20;;;10.50;99.90;;;8.13;100.00;99276.28;4990182;28;20121;-76
2022/04/06 04:55:54;;;;;;;19.52;6.28;;;10.40;99.90;;;8.16;100.00;99280.47;4990170;28;20044;-76
2022/04/06 04:58:22;;;;;;;15.93;6.15;;;10.40;99.90;;;8.17;100.00;99272.13;4994160;28;20046;-77
2022/04/06 05:00:50;;;;;;;14.50;6.53;;;10.40;99.90;;;8.22;100.00;99264.25;4989753;28;20523;-76
2022/04/06 05:03:17;;;;;;;15.65;5.97;;;10.40;99.90;;;8.23;100.00;99263.19;4990113;28;20038;-76
2022/04/06 05:05:48;;;;;;;19.25;6.40;;;10.40;99.90;;;8.23;100.00;99265.09;4989763;28;20133;-76
2022/04/06 05:08:15;;;;;;;12.93;5.20;;;10.40;99.90;;;8.19;100.00;99263.81;5001092;28;20045;-76
2022/04/06 05:10:43;;;;;;;13.88;5.70;;;10.40;99.90;;;8.23;100.00;99262.38;5006458;28;20518;-76
2022/04/06 05:13:10;;;;;;;20.15;5.70;;;10.40;99.90;;;8.23;100.00;99260.50;5008670;28;20061;-76
2022/04/06 05:15:37;;;;;;;16.65;5.32;;;10.40;99.90;;;8.21;100.00;99259.84;5009344;28;20048;-77
2022/04/06 05:18:06;;;;;;;16.63;5.53;;;10.40;99.90;;;8.26;100.00;99263.84;5002448;28;20269;-76
2022/04/06 05:20:35;;;;;;;13.93;5.35;;;10.40;99.90;;;8.28;100.00;99270.75;5028512;28;20076;-76
2022/04/06 05:23:06;;;;;;;14.88;5.47;;;10.40;99.90;;;8.32;100.00;99265.75;5001888;28;20069;-76
2022/04/06 05:25:33;;;;;;;12.45;4.60;;;10.40;99.90;;;8.30;100.00;99267.81;5011260;28;20048;-83
2022/04/06 05:28:03;;;;;;;15.40;5.13;;;10.40;99.90;;;8.31;100.00;99264.09;4999146;28;20039;-85
2022/04/06 05:30:32;;;;;;;12.60;4.53;;;10.40;99.90;;;8.35;100.00;99265.34;5015605;28;20048;-87
2022/04/06 05:32:59;;;;;;;12.68;4.40;;;10.40;99.90;;;8.37;100.00;99266.81;4998975;28;20064;-89
2022/04/06 05:35:28;;;;;;;14.88;5.07;;;10.40;99.90;;;8.36;100.00;99269.75;5012313;28;20053;-89
2022/04/06 05:37:57;;;;;;;14.73;4.65;;;10.40;99.90;;;8.37;100.00;99271.41;5000965;28;20060;-87
2022/04/06 05:40:26;;;;;;;12.43;4.45;;;10.50;99.90;;;8.39;100.00;99269.31;5017932;28;20061;-85
2022/04/06 05:42:53;;;;;;;9.15;3.90;;;10.50;99.90;;;8.44;100.00;99272.31;5014035;28;20456;-85
2022/04/06 05:45:21;;;;;;;12.60;4.20;;;10.50;99.90;;;8.39;100.00;99272.03;5013338;28;20132;-85
2022/04/06 05:47:48;;;;;;;10.82;4.30;;;10.50;99.90;;;8.38;100.00;99271.22;5004672;28;20054;-85
2022/04/06 05:50:16;;;;;;;15.65;4.45;;;10.50;99.90;;;8.45;100.00;99267.72;5014801;28;20498;-84
2022/04/06 05:52:44;;;;;;;11.70;4.60;;;10.50;99.90;;;8.49;100.00;99269.84;5022530;28;20042;-85
2022/04/06 05:55:12;;;;;;;13.93;5.10;;;10.50;99.90;;;8.45;100.00;99262.28;5014724;28;20038;-85
2022/04/06 05:57:39;;;;;;;14.98;5.38;;;10.50;99.90;;;8.46;100.00;99270.22;5003503;28;20070;-87
2022/04/06 06:00:14;;;;;;;12.43;4.63;;;10.50;99.90;;;8.49;100.00;99264.41;4993349;28;20042;-87
2022/04/06 06:02:44;;;;;;;13.25;5.20;;;10.50;99.90;;;8.47;100.00;99271.88;4993333;28;20046;-86
2022/04/06 06:05:17;;;;;;;13.45;5.85;;;10.50;99.90;;;8.52;100.00;99269.41;5011471;28;20038;-85
2022/04/06 06:07:48;;;;;;;13.35;5.95;;;10.50;99.90;;;8.52;100.00;99261.28;5012967;28;20072;-87
2022/04/06 06:10:15;;;;;;;12.68;5.80;;;10.60;99.90;;;8.57;100.00;99266.13;4996277;28;20049;-85
2022/04/06 06:12:43;;;;;;;16.40;5.63;;;10.60;99.90;;;8.59;100.00;99269.47;5012420;28;20034;-86
2022/04/06 06:15:10;;;;;;;14.63;5.50;;;10.60;99.90;;;8.58;100.00;99271.31;5012029;28;20117;-86
2022/04/06 06:17:38;;;;;;;15.20;5.97;;;10.60;99.90;;;8.60;100.00;99260.28;5012324;28;20458;-86
2022/04/06 06:20:08;;;;;;;15.80;6.50;;;10.60;99.90;;;8.60;100.00;99260.28;5013036;28;20514;-88
2022/04/06 06:22:36;;;;;;;14.93;5.68;;;10.60;99.90;;;8.64;100.00;99266.13;5012088;28;20050;-83
2022/04/06 06:25:06;;;;;;;18.50;5.65;;;10.60;99.90;;;8.67;100.00;99257.59;5011216;28;20485;-84
2022/04/06 06:27:38;;;;;;;15.52;5.72;;;10.60;99.90;;;8.66;100.00;99250.47;5011719;28;20041;-84
2022/04/06 06:30:07;;;;;;;12.38;5.53;;;10.60;99.90;;;8.66;100.00;99254.03;5011588;28;20108;-83
2022/04/06 06:32:34;;;;;;;17.05;5.63;;;10.60;99.90;;;8.69;100.00;99252.81;4999913;28;20050;-84
2022/04/06 06:35:02;;;;;;;13.52;5.47;;;10.60;99.90;;;8.69;100.00;99259.06;4993201;28;20058;-84
2022/04/06 06:37:29;;;;;;;16.15;5.53;;;10.70;99.90;;;8.69;100.00;99255.50;5004042;28;20628;-84
2022/04/06 06:39:56;;;;;;;14.10;5.65;;;10.60;99.90;;;8.69;100.00;99241.94;5011625;28;20494;-84
2022/04/06 06:42:25;;;;;;;15.20;4.88;;;10.70;99.90;;;8.75;100.00;99249.25;5002199;28;20081;-85
2022/04/06 06:44:52;;;;;;;13.90;5.53;;;10.70;99.90;;;8.68;100.00;99245.69;4992941;28;20034;-84
2022/04/06 06:47:19;;;;;;;12.93;4.85;;;10.70;99.90;;;8.69;100.00;99248.22;4993797;28;20462;-84
2022/04/06 06:49:47;;;;;;;10.95;4.47;;;10.70;99.90;;;8.66;100.00;99240.47;4992370;28;20054;-84
2022/04/06 06:52:14;;;;;;;12.27;4.57;;;10.70;99.90;;;8.68;100.00;99245.69;4999759;28;20067;-83
2022/04/06 06:54:42;;;;;;;10.63;4.38;;;10.70;99.90;;;8.71;100.00;99234.44;5012153;28;20073;-84
2022/04/06 06:57:10;;;;;;;12.13;4.63;;;10.70;99.90;;;8.66;100.00;99239.63;5006999;28;20145;-84
2022/04/06 06:59:41;;;;;;;14.00;4.60;;;10.70;99.90;;;8.70;100.00;99239.03;5012289;28;20045;-84
2022/04/06 07:02:09;;;;;;;14.80;4.55;;;10.70;99.90;;;8.79;100.00;99247.81;5019503;28;20034;-84
2022/04/06 07:04:36;;;;;;;14.35;4.53;;;10.70;99.90;;;8.80;100.00;99241.38;5011948;28;20045;-84
2022/04/06 07:07:04;;;;;;;11.63;4.53;;;10.70;99.90;;;8.79;100.00;99234.25;5007736;28;20084;-84
2022/04/06 07:09:33;;;;;;;11.90;4.43;;;10.80;99.90;;;8.78;100.00;99230.72;4992551;28;20050;-85
2022/04/06 07:12:00;;;;;;;14.38;4.72;;;10.80;99.90;;;8.82;100.00;99239.28;5005173;28;20061;-85
2022/04/06 07:14:27;;;;;;;14.82;4.50;;;10.80;99.90;;;8.80;100.00;99234.06;5008713;28;20092;-84
2022/04/06 07:16:58;;;;;;;13.23;4.28;;;10.80;99.90;;;8.82;100.00;99238.44;5011123;28;20045;-85
2022/04/06 07:19:26;;;;;;;9.52;4.40;;;10.80;99.90;;;8.82;100.00;99233.03;5024549;28;20054;-84
2022/04/06 07:21:53;;;;;;;13.88;4.63;;;10.80;99.90;;;8.86;100.00;99237.81;5012295;28;20457;-85
2022/04/06 07:24:22;;;;;;;12.15;5.05;;;10.80;99.90;;;8.86;100.00;99232.41;5011745;28;20107;-84
2022/04/06 07:26:49;;;;;;;14.73;4.78;;;10.80;99.90;;;8.85;100.00;99233.44;5010638;28;20045;-84
2022/04/06 07:29:16;;;;;;;13.55;4.90;;;10.80;99.90;;;8.79;100.00;99226.13;5011465;28;20465;-85
2022/04/06 07:31:45;;;;;;;12.75;5.20;;;10.80;99.90;;;8.78;100.00;99227.16;5010898;23;20057;-75
2022/04/06 07:34:13;;;;;;;12.90;4.63;;;10.80;99.90;;;8.81;100.00;99226.75;4999722;28;20108;-76
2022/04/06 07:36:41;;;;;;;11.07;4.40;;;10.80;99.90;;;8.84;100.00;99218.19;5010332;28;20042;-77
2022/04/06 07:39:08;;;;;;;10.60;4.40;;;10.80;99.90;;;8.88;100.00;99215.91;5004443;28;20046;-78
2022/04/06 07:41:35;;;;;;;15.27;4.72;;;10.80;99.90;;;8.90;100.00;99211.94;5004511;28;20613;-86
2022/04/06 07:44:03;;;;;;;11.63;4.43;;;10.80;99.90;;;8.95;100.00;99204.03;4987519;28;20089;-80
2022/04/06 07:46:30;;;;;;;16.40;4.80;;;10.80;99.90;;;9.06;100.00;99190.88;4985903;28;20038;-80
2022/04/06 07:48:57;;;;;;;13.02;4.13;;;10.90;99.90;;;9.11;100.00;99210.94;4981435;28;20082;-78
2022/04/06 07:51:26;;;;;;;16.25;4.95;;;10.90;99.90;;;9.17;100.00;99196.53;4980311;28;20081;-78
2022/04/06 07:53:53;;;;;;;11.60;4.20;;;10.90;99.90;;;9.21;100.00;99196.94;4990169;28;20053;-78
2022/04/06 07:56:20;;;;;;;11.15;4.25;;;10.90;99.90;;;9.21;100.00;99202.38;4991648;28;20121;-78
2022/04/06 07:58:47;;;;;;;11.15;4.63;;;10.90;99.90;;;9.25;100.00;99203.63;4978082;28;20110;-78
2022/04/06 08:01:15;;;;;;;12.00;4.40;;;11.00;99.90;;;9.25;100.00;99205.50;4971192;28;20074;-78
2022/04/06 08:03:42;;;;;;;11.25;4.35;;;11.00;99.90;;;9.24;100.00;99196.53;4983897;28;20046;-78
2022/04/06 08:06:09;;;;;;;10.80;4.38;;;11.00;99.90;;;9.26;100.00;99207.19;4989524;28;20520;-78
2022/04/06 08:08:38;;;;;;;9.55;3.97;;;11.10;99.90;;;9.25;100.00;99202.78;4991422;28;20070;-78
2022/04/06 08:11:05;;;;;;;14.65;4.70;;;11.10;99.90;;;9.31;100.00;99201.97;4989428;28;20050;-77
2022/04/06 08:13:32;;;;;;;17.10;4.60;;;11.10;99.90;;;9.36;100.00;99204.88;4991212;28;20058;-78
2022/04/06 08:16:00;;;;;;;10.15;4.45;;;11.10;99.90;;;9.37;100.00;99210.13;4990652;28;20098;-78
2022/04/06 08:18:28;;;;;;;11.98;4.70;;;11.10;99.90;;;9.31;100.00;99204.66;4994444;28;20513;-78
2022/04/06 08:20:55;;;;;;;9.00;4.50;;;11.10;99.90;;;9.34;100.00;99198.84;4992559;28;20463;-78
2022/04/06 08:23:23;;;;;;;11.57;4.72;;;11.20;99.90;;;9.36;100.00;99199.47;4989187;28;20053;-77
2022/04/06 08:25:52;;;;;;;10.23;4.60;;;11.20;99.90;;;9.34;100.00;99202.38;4990572;28;20035;-78
2022/04/06 08:28:20;;;;;;;13.38;4.82;;;11.20;99.90;;;9.35;100.00;99197.81;4990945;28;20042;-77
2022/04/06 08:30:47;;;;;;;10.77;4.93;;;11.20;99.90;;;9.38;100.00;99209.06;4984013;28;20043;-78
2022/04/06 08:33:15;;;;;;;9.23;4.88;;;11.20;99.90;;;9.39;100.00;99209.91;4977982;28;20054;-78
2022/04/06 08:35:43;;;;;;;10.65;4.45;;;11.20;99.90;;;9.34;100.00;99202.38;4986343;28;20042;-78
2022/04/06 08:38:16;;;;;;;15.23;4.90;;;11.20;99.90;;;9.31;100.00;99205.53;4990736;28;20129;-78
2022/04/06 08:40:45;;;;;;;13.00;4.50;;;11.20;99.90;;;9.29;100.00;99199.47;4981438;28;20050;-78
2022/04/06 08:43:15;;;;;;;10.93;4.70;;;11.10;99.90;;;9.28;100.00;99203.22;4971316;28;20090;-78
2022/04/06 08:45:42;;;;;;;9.70;4.13;;;11.10;99.90;;;9.29;100.00;99196.75;4983543;28;20358;-78
2022/04/06 08:48:13;;;;;;;11.85;4.22;;;11.20;99.90;;;9.30;100.00;99198.41;4990820;28;20046;-77
2022/04/06 08:50:41;;;;;;;12.38;4.22;;;11.10;99.90;;;9.30;100.00;99195.69;4989012;28;20066;-78
2022/04/06 08:53:09;;;;;;;11.30;4.00;;;11.20;99.90;;;9.28;100.00;99186.94;4984487;28;20050;-77
2022/04/06 08:55:36;;;;;;;8.02;3.53;;;11.10;99.90;;;9.36;100.00;99180.44;4971492;28;20046;-77
2022/04/06 08:58:05;;;;;;;9.43;3.63;;;11.20;99.90;;;9.48;100.00;99184.22;4975672;28;20062;-78
2022/04/06 09:00:34;;;;;;;11.07;3.70;;;11.20;99.90;;;9.63;100.00;99173.09;4984843;28;20050;-78
2022/04/06 09:03:03;;;;;;;11.95;3.50;;;11.20;99.90;;;9.79;100.00;99177.28;4986090;28;20122;-78
2022/04/06 09:05:32;;;;;;;12.07;3.72;;;11.30;99.90;;;9.88;100.00;99164.28;4974356;28;20510;-78
2022/04/06 09:08:00;;;;;;;7.20;3.40;;;11.40;99.90;;;9.95;100.00;99176.78;4984912;28;20157;-78
2022/04/06 09:10:33;;;;;;;10.38;3.45;;;11.40;99.90;;;10.00;100.00;99178.06;4985086;28;20049;-78
2022/04/06 09:13:15;;;;;;;7.70;3.13;;;11.50;99.90;;;10.00;100.00;99170.72;4974470;28;20034;-78
2022/04/06 09:15:45;;;;;;;11.70;3.25;;;11.50;99.90;;;10.04;100.00;99171.13;4988916;28;20042;-78
2022/04/06 09:18:13;;;;;;;9.00;3.45;;;11.50;99.90;;;10.12;100.00;99174.44;4990807;28;20430;-77
2022/04/06 09:20:40;;;;;;;8.05;2.60;;;11.60;99.90;;;10.15;100.00;99176.75;5008971;28;20073;-78
2022/04/06 09:23:09;;;;;;;11.68;3.05;;;11.70;99.90;;;10.17;99.44;99176.53;4998615;28;20047;-78
2022/04/06 09:25:41;;;;;;;7.47;2.80;;;11.70;99.90;;;10.22;100.00;99165.00;4970611;28;20047;-78
2022/04/06 09:28:12;;;;;;;6.90;2.63;;;11.70;99.90;;;10.18;99.64;99173.59;4976156;28;20058;-78
2022/04/06 09:30:47;;;;;;;9.85;2.60;;;11.70;99.90;;;10.18;99.55;99172.75;4989338;28;20132;-78
2022/04/06 09:33:18;;;;;;;13.60;2.88;;;11.80;99.90;;;10.17;98.12;99169.19;4982363;28;20122;-77
2022/04/06 09:35:49;;;;;;;6.85;2.30;;;11.80;99.90;;;10.13;97.52;99172.56;4971241;28;20129;-78
2022/04/06 09:38:22;;;;;;;9.85;2.28;;;11.70;99.90;;;10.12;97.86;99174.44;4996884;28;20066;-78
2022/04/06 09:40:51;;;;;;;7.47;2.50;;;11.70;99.90;;;10.11;97.90;99186.38;4969826;28;20469;-77
2022/04/06 09:43:26;;;;;;;8.30;2.60;;;11.70;99.90;;;10.07;97.54;99181.56;4978518;28;20048;-77
2022/04/06 09:48:57;;;;;;;6.75;2.20;;;11.70;99.90;;;10.01;96.77;99168.84;4978550;28;20047;-77
2022/04/06 09:51:25;;;;;;;8.50;2.47;;;11.70;99.90;;;10.00;97.38;99173.44;4974696;28;20507;-77
2022/04/06 09:53:54;;;;;;;6.80;2.17;;;11.70;99.90;;;9.97;96.93;99171.97;4992077;28;20171;-78
2022/04/06 09:56:22;;;;;;;9.00;2.65;;;11.70;99.90;;;9.98;96.73;99161.97;5002745;28;20453;-78
2022/04/06 09:58:51;;;;;;;9.02;2.42;;;11.70;99.90;;;9.96;97.51;99178.47;4987600;28;20462;-78
2022/04/06 10:01:20;;;;;;;8.50;2.63;;;11.70;99.90;;;10.00;97.62;99170.72;4989117;28;20050;-77
2022/04/06 10:03:53;;;;;;;7.97;2.22;;;11.70;99.90;;;10.03;97.86;99162.13;5003761;28;20088;-78
2022/04/06 10:06:23;;;;;;;9.88;2.40;;;11.70;99.90;;;10.06;97.66;99169.03;5009479;28;20044;-79
2022/04/06 10:08:50;;;;;;;7.57;2.10;;;11.70;99.90;;;10.06;97.58;99172.59;4989694;28;20446;-81
2022/04/06 10:11:19;;;;;;;9.73;2.35;;;11.70;99.90;;;10.06;97.05;99180.75;4975833;28;20392;-77
2022/04/06 10:13:47;;;;;;;7.38;2.10;;;11.70;99.90;;;10.05;97.16;99165.50;4991706;28;20046;-76
2022/04/06 10:16:14;;;;;;;10.90;2.63;;;11.70;99.90;;;10.04;97.25;99163.81;4989760;28;20117;-77
2022/04/06 10:18:44;;;;;;;9.15;2.40;;;11.70;99.90;;;10.05;96.72;99170.94;4998552;28;20065;-76
2022/04/06 10:21:19;;;;;;;9.30;2.15;;;11.70;99.90;;;10.06;97.49;99159.00;5008923;28;20042;-77
2022/04/06 10:24:04;;;;;;;8.20;2.58;;;11.70;99.90;;;10.13;97.70;99165.25;5007036;28;20056;-76
2022/04/06 10:26:45;;;;;;;6.30;2.30;;;11.70;99.90;;;10.20;97.95;99156.22;4999840;28;20046;-77